sensor_id;sensor_type;location;lat;lon;timestamp;P1;durP1;ratioP1;P2;durP2;ratioP2
48317;SDS011;34127;47.412;9.730;2023-09-19T00:01:12;3.22;;;1.83;;
48317;SDS011;34127;47.412;9.730;2023-09-19T00:03:39;4.55;;;2.20;;
48317;SDS011;34127;47.412;9.730;2023-09-19T00:06:07;4.93;;;2.28;;
48317;SDS011;34127;47.412;9.730;2023-09-19T00:08:33;6.80;;;2.55;;
48317;SDS011;34127;47.412;9.730;2023-09-19T00:10:59;7.93;;;2.92;;
48317;SDS011;34127;47.412;9.730;2023-09-19T00:13:33;5.18;;;2.50;;
48317;SDS011;34127;47.412;9.730;2023-09-19T00:16:01;6.65;;;2.60;;
48317;SDS011;34127;47.412;9.730;2023-09-19T00:18:33;6.22;;;2.75;;
48317;SDS011;34127;47.412;9.730;2023-09-19T00:21:00;5.38;;;2.95;;
48317;SDS011;34127;47.412;9.730;2023-09-19T00:23:29;6.78;;;2.67;;
48317;SDS011;34127;47.412;9.730;2023-09-19T00:25:59;4.07;;;2.20;;
48317;SDS011;34127;47.412;9.730;2023-09-19T00:28:26;4.95;;;2.10;;
48317;SDS011;34127;47.412;9.730;2023-09-19T00:30:52;6.20;;;2.20;;
48317;SDS011;34127;47.412;9.730;2023-09-19T00:33:22;4.00;;;1.90;;
48317;SDS011;34127;47.412;9.730;2023-09-19T00:35:53;5.15;;;2.60;;
48317;SDS011;34127;47.412;9.730;2023-09-19T00:38:19;5.20;;;2.10;;
48317;SDS011;34127;47.412;9.730;2023-09-19T00:40:47;4.70;;;2.28;;
48317;SDS011;34127;47.412;9.730;2023-09-19T00:43:14;4.20;;;1.75;;
48317;SDS011;34127;47.412;9.730;2023-09-19T00:45:42;5.97;;;2.00;;
48317;SDS011;34127;47.412;9.730;2023-09-19T00:48:10;3.28;;;1.80;;
48317;SDS011;34127;47.412;9.730;2023-09-19T00:50:37;2.95;;;1.90;;
48317;SDS011;34127;47.412;9.730;2023-09-19T00:53:07;3.72;;;1.80;;
48317;SDS011;34127;47.412;9.730;2023-09-19T00:55:35;4.95;;;2.08;;
48317;SDS011;34127;47.412;9.730;2023-09-19T00:58:07;6.82;;;2.30;;
48317;SDS011;34127;47.412;9.730;2023-09-19T01:00:35;3.75;;;1.80;;
48317;SDS011;34127;47.412;9.730;2023-09-19T01:03:01;4.55;;;2.10;;
48317;SDS011;34127;47.412;9.730;2023-09-19T01:05:28;6.90;;;2.00;;
48317;SDS011;34127;47.412;9.730;2023-09-19T01:07:54;4.90;;;1.83;;
48317;SDS011;34127;47.412;9.730;2023-09-19T01:10:21;6.10;;;2.10;;
48317;SDS011;34127;47.412;9.730;2023-09-19T01:12:51;4.45;;;2.03;;
48317;SDS011;34127;47.412;9.730;2023-09-19T01:17:51;3.63;;;1.75;;
48317;SDS011;34127;47.412;9.730;2023-09-19T01:23:00;4.65;;;2.17;;
48317;SDS011;34127;47.412;9.730;2023-09-19T01:30:29;3.42;;;1.80;;
48317;SDS011;34127;47.412;9.730;2023-09-19T01:32:58;4.03;;;1.85;;
48317;SDS011;34127;47.412;9.730;2023-09-19T01:35:27;3.25;;;1.80;;
48317;SDS011;34127;47.412;9.730;2023-09-19T01:37:54;6.13;;;1.63;;
48317;SDS011;34127;47.412;9.730;2023-09-19T01:40:20;3.72;;;1.42;;
48317;SDS011;34127;47.412;9.730;2023-09-19T01:42:49;4.43;;;1.75;;
48317;SDS011;34127;47.412;9.730;2023-09-19T01:47:56;9.43;;;3.15;;
48317;SDS011;34127;47.412;9.730;2023-09-19T01:50:29;3.67;;;1.85;;
48317;SDS011;34127;47.412;9.730;2023-09-19T01:52:57;2.92;;;1.70;;
48317;SDS011;34127;47.412;9.730;2023-09-19T01:55:26;4.15;;;1.67;;
48317;SDS011;34127;47.412;9.730;2023-09-19T01:57:58;4.65;;;1.85;;
48317;SDS011;34127;47.412;9.730;2023-09-19T02:00:29;3.60;;;2.00;;
48317;SDS011;34127;47.412;9.730;2023-09-19T02:02:57;4.07;;;2.25;;
48317;SDS011;34127;47.412;9.730;2023-09-19T02:05:24;4.93;;;1.85;;
48317;SDS011;34127;47.412;9.730;2023-09-19T02:07:52;3.28;;;1.70;;
48317;SDS011;34127;47.412;9.730;2023-09-19T02:10:19;4.93;;;1.73;;
48317;SDS011;34127;47.412;9.730;2023-09-19T02:12:45;4.57;;;1.65;;
48317;SDS011;34127;47.412;9.730;2023-09-19T02:15:11;3.50;;;1.90;;
48317;SDS011;34127;47.412;9.730;2023-09-19T02:17:40;4.88;;;1.60;;
48317;SDS011;34127;47.412;9.730;2023-09-19T02:20:07;4.05;;;1.90;;
48317;SDS011;34127;47.412;9.730;2023-09-19T02:22:35;4.72;;;2.05;;
48317;SDS011;34127;47.412;9.730;2023-09-19T02:25:01;5.78;;;1.70;;
48317;SDS011;34127;47.412;9.730;2023-09-19T02:27:30;3.58;;;1.83;;
48317;SDS011;34127;47.412;9.730;2023-09-19T02:29:56;3.45;;;1.50;;
48317;SDS011;34127;47.412;9.730;2023-09-19T02:32:23;6.13;;;1.85;;
48317;SDS011;34127;47.412;9.730;2023-09-19T02:34:49;2.95;;;1.70;;
48317;SDS011;34127;47.412;9.730;2023-09-19T02:37:17;4.82;;;1.90;;
48317;SDS011;34127;47.412;9.730;2023-09-19T02:39:44;3.85;;;1.70;;
48317;SDS011;34127;47.412;9.730;2023-09-19T02:42:10;2.70;;;1.52;;
48317;SDS011;34127;47.412;9.730;2023-09-19T02:44:36;5.03;;;1.80;;
48317;SDS011;34127;47.412;9.730;2023-09-19T02:47:03;4.05;;;1.52;;
48317;SDS011;34127;47.412;9.730;2023-09-19T02:49:29;3.55;;;1.95;;
48317;SDS011;34127;47.412;9.730;2023-09-19T02:51:55;2.90;;;1.70;;
48317;SDS011;34127;47.412;9.730;2023-09-19T02:54:23;5.60;;;2.00;;
48317;SDS011;34127;47.412;9.730;2023-09-19T02:56:50;4.68;;;1.70;;
48317;SDS011;34127;47.412;9.730;2023-09-19T02:59:16;3.13;;;1.60;;
48317;SDS011;34127;47.412;9.730;2023-09-19T03:01:44;5.30;;;1.80;;
48317;SDS011;34127;47.412;9.730;2023-09-19T03:04:13;3.17;;;1.65;;
48317;SDS011;34127;47.412;9.730;2023-09-19T03:06:44;6.63;;;2.40;;
48317;SDS011;34127;47.412;9.730;2023-09-19T03:09:10;7.45;;;2.10;;
48317;SDS011;34127;47.412;9.730;2023-09-19T03:11:37;3.35;;;1.75;;
48317;SDS011;34127;47.412;9.730;2023-09-19T03:14:05;4.60;;;1.70;;
48317;SDS011;34127;47.412;9.730;2023-09-19T03:16:31;5.40;;;2.08;;
48317;SDS011;34127;47.412;9.730;2023-09-19T03:18:58;4.75;;;1.90;;
48317;SDS011;34127;47.412;9.730;2023-09-19T03:21:25;4.93;;;1.85;;
48317;SDS011;34127;47.412;9.730;2023-09-19T03:23:51;3.30;;;1.80;;
48317;SDS011;34127;47.412;9.730;2023-09-19T03:26:17;4.72;;;1.70;;
48317;SDS011;34127;47.412;9.730;2023-09-19T03:28:44;4.13;;;1.80;;
48317;SDS011;34127;47.412;9.730;2023-09-19T03:31:11;7.72;;;2.03;;
48317;SDS011;34127;47.412;9.730;2023-09-19T03:33:37;5.93;;;1.95;;
48317;SDS011;34127;47.412;9.730;2023-09-19T03:36:04;3.95;;;1.70;;
48317;SDS011;34127;47.412;9.730;2023-09-19T03:38:30;3.92;;;2.00;;
48317;SDS011;34127;47.412;9.730;2023-09-19T03:40:57;3.45;;;1.80;;
48317;SDS011;34127;47.412;9.730;2023-09-19T03:43:24;3.58;;;2.10;;
48317;SDS011;34127;47.412;9.730;2023-09-19T03:45:50;4.38;;;2.05;;
48317;SDS011;34127;47.412;9.730;2023-09-19T03:48:16;4.28;;;2.25;;
48317;SDS011;34127;47.412;9.730;2023-09-19T03:50:42;5.05;;;2.00;;
48317;SDS011;34127;47.412;9.730;2023-09-19T03:53:11;4.85;;;2.30;;
48317;SDS011;34127;47.412;9.730;2023-09-19T03:55:38;4.72;;;2.17;;
48317;SDS011;34127;47.412;9.730;2023-09-19T03:58:05;3.53;;;2.10;;
48317;SDS011;34127;47.412;9.730;2023-09-19T04:00:31;4.40;;;2.35;;
48317;SDS011;34127;47.412;9.730;2023-09-19T04:02:59;5.72;;;2.35;;
48317;SDS011;34127;47.412;9.730;2023-09-19T04:05:30;4.22;;;2.10;;
48317;SDS011;34127;47.412;9.730;2023-09-19T04:07:56;3.60;;;2.30;;
48317;SDS011;34127;47.412;9.730;2023-09-19T04:10:22;4.25;;;2.30;;
48317;SDS011;34127;47.412;9.730;2023-09-19T04:12:52;3.70;;;2.45;;
48317;SDS011;34127;47.412;9.730;2023-09-19T04:15:18;6.28;;;1.92;;
48317;SDS011;34127;47.412;9.730;2023-09-19T04:17:47;5.47;;;2.10;;
48317;SDS011;34127;47.412;9.730;2023-09-19T04:20:13;3.53;;;2.00;;
48317;SDS011;34127;47.412;9.730;2023-09-19T04:22:40;5.93;;;2.00;;
48317;SDS011;34127;47.412;9.730;2023-09-19T04:25:06;4.22;;;2.13;;
48317;SDS011;34127;47.412;9.730;2023-09-19T04:27:32;3.67;;;2.00;;
48317;SDS011;34127;47.412;9.730;2023-09-19T04:29:58;6.40;;;1.90;;
48317;SDS011;34127;47.412;9.730;2023-09-19T04:32:28;3.88;;;2.00;;
48317;SDS011;34127;47.412;9.730;2023-09-19T04:34:54;4.20;;;1.63;;
48317;SDS011;34127;47.412;9.730;2023-09-19T04:37:25;4.70;;;1.77;;
48317;SDS011;34127;47.412;9.730;2023-09-19T04:39:51;3.97;;;1.77;;
48317;SDS011;34127;47.412;9.730;2023-09-19T04:42:17;4.35;;;1.90;;
48317;SDS011;34127;47.412;9.730;2023-09-19T04:44:44;5.07;;;1.70;;
48317;SDS011;34127;47.412;9.730;2023-09-19T04:47:10;3.88;;;1.60;;
48317;SDS011;34127;47.412;9.730;2023-09-19T04:49:37;4.18;;;1.70;;
48317;SDS011;34127;47.412;9.730;2023-09-19T04:52:05;3.03;;;1.45;;
48317;SDS011;34127;47.412;9.730;2023-09-19T04:54:31;3.25;;;1.70;;
48317;SDS011;34127;47.412;9.730;2023-09-19T04:56:59;4.10;;;1.70;;
48317;SDS011;34127;47.412;9.730;2023-09-19T04:59:26;3.95;;;1.75;;
48317;SDS011;34127;47.412;9.730;2023-09-19T05:01:53;3.70;;;1.60;;
48317;SDS011;34127;47.412;9.730;2023-09-19T05:04:19;3.28;;;1.60;;
48317;SDS011;34127;47.412;9.730;2023-09-19T05:06:45;3.22;;;1.50;;
48317;SDS011;34127;47.412;9.730;2023-09-19T05:09:13;3.28;;;1.70;;
48317;SDS011;34127;47.412;9.730;2023-09-19T05:11:40;3.33;;;1.70;;
48317;SDS011;34127;47.412;9.730;2023-09-19T05:14:06;6.70;;;2.45;;
48317;SDS011;34127;47.412;9.730;2023-09-19T05:16:32;4.70;;;2.53;;
48317;SDS011;34127;47.412;9.730;2023-09-19T05:18:59;5.03;;;2.50;;
48317;SDS011;34127;47.412;9.730;2023-09-19T05:21:26;3.92;;;2.53;;
48317;SDS011;34127;47.412;9.730;2023-09-19T05:23:56;6.18;;;2.60;;
48317;SDS011;34127;47.412;9.730;2023-09-19T05:26:22;3.45;;;2.20;;
48317;SDS011;34127;47.412;9.730;2023-09-19T05:28:51;5.32;;;2.40;;
48317;SDS011;34127;47.412;9.730;2023-09-19T05:31:22;5.78;;;2.70;;
48317;SDS011;34127;47.412;9.730;2023-09-19T05:33:57;6.13;;;3.35;;
48317;SDS011;34127;47.412;9.730;2023-09-19T05:36:33;5.05;;;2.38;;
48317;SDS011;34127;47.412;9.730;2023-09-19T05:41:36;4.50;;;2.40;;
48317;SDS011;34127;47.412;9.730;2023-09-19T05:44:08;4.10;;;2.10;;
48317;SDS011;34127;47.412;9.730;2023-09-19T05:46:48;4.20;;;2.20;;
48317;SDS011;34127;47.412;9.730;2023-09-19T05:49:46;5.03;;;2.30;;
48317;SDS011;34127;47.412;9.730;2023-09-19T05:52:21;4.20;;;2.42;;
48317;SDS011;34127;47.412;9.730;2023-09-19T05:54:51;5.95;;;2.58;;
48317;SDS011;34127;47.412;9.730;2023-09-19T05:57:26;4.22;;;2.30;;
48317;SDS011;34127;47.412;9.730;2023-09-19T06:00:08;8.18;;;2.40;;
48317;SDS011;34127;47.412;9.730;2023-09-19T06:02:43;5.88;;;2.40;;
48317;SDS011;34127;47.412;9.730;2023-09-19T06:05:16;5.03;;;2.17;;
48317;SDS011;34127;47.412;9.730;2023-09-19T06:07:57;6.07;;;2.35;;
48317;SDS011;34127;47.412;9.730;2023-09-19T06:10:42;9.50;;;2.20;;
48317;SDS011;34127;47.412;9.730;2023-09-19T06:13:19;5.57;;;2.17;;
48317;SDS011;34127;47.412;9.730;2023-09-19T06:16:00;6.30;;;2.42;;
48317;SDS011;34127;47.412;9.730;2023-09-19T06:18:39;5.88;;;2.65;;
48317;SDS011;34127;47.412;9.730;2023-09-19T06:21:13;9.00;;;3.33;;
48317;SDS011;34127;47.412;9.730;2023-09-19T06:23:49;6.53;;;3.05;;
48317;SDS011;34127;47.412;9.730;2023-09-19T06:26:20;5.97;;;3.13;;
48317;SDS011;34127;47.412;9.730;2023-09-19T06:28:56;6.97;;;3.10;;
48317;SDS011;34127;47.412;9.730;2023-09-19T06:31:36;5.75;;;2.28;;
48317;SDS011;34127;47.412;9.730;2023-09-19T06:34:14;4.72;;;2.13;;
48317;SDS011;34127;47.412;9.730;2023-09-19T06:36:48;6.85;;;2.13;;
48317;SDS011;34127;47.412;9.730;2023-09-19T06:39:35;4.72;;;2.53;;
48317;SDS011;34127;47.412;9.730;2023-09-19T06:42:18;9.52;;;2.22;;
48317;SDS011;34127;47.412;9.730;2023-09-19T06:44:48;7.05;;;2.95;;
48317;SDS011;34127;47.412;9.730;2023-09-19T06:47:18;5.13;;;2.83;;
48317;SDS011;34127;47.412;9.730;2023-09-19T06:49:53;4.75;;;2.47;;
48317;SDS011;34127;47.412;9.730;2023-09-19T06:52:28;7.25;;;2.20;;
48317;SDS011;34127;47.412;9.730;2023-09-19T06:55:25;5.18;;;2.20;;
48317;SDS011;34127;47.412;9.730;2023-09-19T06:58:35;5.63;;;2.33;;
48317;SDS011;34127;47.412;9.730;2023-09-19T07:01:23;4.50;;;2.42;;
48317;SDS011;34127;47.412;9.730;2023-09-19T07:04:08;5.07;;;3.22;;
48317;SDS011;34127;47.412;9.730;2023-09-19T07:06:44;6.45;;;2.30;;
48317;SDS011;34127;47.412;9.730;2023-09-19T07:09:22;4.75;;;2.20;;
48317;SDS011;34127;47.412;9.730;2023-09-19T07:11:57;4.38;;;1.92;;
48317;SDS011;34127;47.412;9.730;2023-09-19T07:14:27;5.50;;;2.72;;
48317;SDS011;34127;47.412;9.730;2023-09-19T07:17:19;7.25;;;2.50;;
48317;SDS011;34127;47.412;9.730;2023-09-19T07:19:59;5.63;;;2.30;;
48317;SDS011;34127;47.412;9.730;2023-09-19T07:22:54;5.43;;;2.28;;
48317;SDS011;34127;47.412;9.730;2023-09-19T07:25:40;5.53;;;2.17;;
48317;SDS011;34127;47.412;9.730;2023-09-19T07:30:47;7.32;;;2.38;;
48317;SDS011;34127;47.412;9.730;2023-09-19T07:33:19;6.25;;;2.20;;
48317;SDS011;34127;47.412;9.730;2023-09-19T07:35:55;5.93;;;2.40;;
48317;SDS011;34127;47.412;9.730;2023-09-19T07:38:29;6.22;;;2.53;;
48317;SDS011;34127;47.412;9.730;2023-09-19T07:41:06;9.15;;;3.35;;
48317;SDS011;34127;47.412;9.730;2023-09-19T07:44:01;6.40;;;2.00;;
48317;SDS011;34127;47.412;9.730;2023-09-19T07:46:39;5.07;;;1.83;;
48317;SDS011;34127;47.412;9.730;2023-09-19T07:49:15;6.82;;;2.05;;
48317;SDS011;34127;47.412;9.730;2023-09-19T07:51:51;4.95;;;1.90;;
48317;SDS011;34127;47.412;9.730;2023-09-19T07:54:24;4.03;;;2.15;;
48317;SDS011;34127;47.412;9.730;2023-09-19T07:57:04;6.90;;;2.78;;
48317;SDS011;34127;47.412;9.730;2023-09-19T07:59:44;7.03;;;2.00;;
48317;SDS011;34127;47.412;9.730;2023-09-19T08:02:16;3.92;;;1.95;;
48317;SDS011;34127;47.412;9.730;2023-09-19T08:04:52;4.25;;;1.80;;
48317;SDS011;34127;47.412;9.730;2023-09-19T08:07:30;6.13;;;1.80;;
48317;SDS011;34127;47.412;9.730;2023-09-19T08:12:34;4.70;;;2.15;;
48317;SDS011;34127;47.412;9.730;2023-09-19T08:15:25;5.43;;;2.10;;
48317;SDS011;34127;47.412;9.730;2023-09-19T08:18:06;3.45;;;1.90;;
48317;SDS011;34127;47.412;9.730;2023-09-19T08:20:48;4.05;;;1.95;;
48317;SDS011;34127;47.412;9.730;2023-09-19T08:23:25;4.60;;;1.80;;
48317;SDS011;34127;47.412;9.730;2023-09-19T08:26:07;3.97;;;1.90;;
48317;SDS011;34127;47.412;9.730;2023-09-19T08:28:44;8.63;;;2.40;;
48317;SDS011;34127;47.412;9.730;2023-09-19T08:31:25;6.38;;;2.28;;
48317;SDS011;34127;47.412;9.730;2023-09-19T08:34:11;7.73;;;2.40;;
48317;SDS011;34127;47.412;9.730;2023-09-19T08:36:46;6.93;;;2.10;;
48317;SDS011;34127;47.412;9.730;2023-09-19T08:39:18;3.70;;;2.10;;
48317;SDS011;34127;47.412;9.730;2023-09-19T08:41:58;5.13;;;1.60;;
48317;SDS011;34127;47.412;9.730;2023-09-19T08:44:36;3.40;;;1.60;;
48317;SDS011;34127;47.412;9.730;2023-09-19T08:47:11;5.05;;;1.83;;
48317;SDS011;34127;47.412;9.730;2023-09-19T08:50:00;4.00;;;1.75;;
48317;SDS011;34127;47.412;9.730;2023-09-19T08:52:32;5.22;;;1.83;;
48317;SDS011;34127;47.412;9.730;2023-09-19T08:55:04;3.65;;;1.42;;
48317;SDS011;34127;47.412;9.730;2023-09-19T08:57:36;3.95;;;2.05;;
48317;SDS011;34127;47.412;9.730;2023-09-19T09:00:09;3.63;;;1.30;;
48317;SDS011;34127;47.412;9.730;2023-09-19T09:02:47;4.28;;;1.40;;
48317;SDS011;34127;47.412;9.730;2023-09-19T09:05:19;3.20;;;1.75;;
48317;SDS011;34127;47.412;9.730;2023-09-19T09:07:48;5.85;;;1.90;;
48317;SDS011;34127;47.412;9.730;2023-09-19T09:10:19;4.80;;;1.92;;
48317;SDS011;34127;47.412;9.730;2023-09-19T09:12:53;4.82;;;1.70;;
48317;SDS011;34127;47.412;9.730;2023-09-19T09:15:23;3.30;;;1.70;;
48317;SDS011;34127;47.412;9.730;2023-09-19T09:17:53;3.58;;;1.80;;
48317;SDS011;34127;47.412;9.730;2023-09-19T09:20:25;4.43;;;1.85;;
48317;SDS011;34127;47.412;9.730;2023-09-19T09:22:52;5.43;;;1.90;;
48317;SDS011;34127;47.412;9.730;2023-09-19T09:25:19;3.60;;;1.92;;
48317;SDS011;34127;47.412;9.730;2023-09-19T09:28:23;9.90;;;2.60;;
48317;SDS011;34127;47.412;9.730;2023-09-19T09:30:45;5.68;;;2.00;;
48317;SDS011;34127;47.412;9.730;2023-09-19T09:33:13;7.88;;;1.80;;
48317;SDS011;34127;47.412;9.730;2023-09-19T09:35:48;6.28;;;2.45;;
48317;SDS011;34127;47.412;9.730;2023-09-19T09:38:19;4.15;;;2.15;;
48317;SDS011;34127;47.412;9.730;2023-09-19T09:40:56;6.32;;;2.45;;
48317;SDS011;34127;47.412;9.730;2023-09-19T09:43:33;7.88;;;2.30;;
48317;SDS011;34127;47.412;9.730;2023-09-19T09:46:12;4.85;;;2.40;;
48317;SDS011;34127;47.412;9.730;2023-09-19T09:48:56;6.55;;;2.10;;
48317;SDS011;34127;47.412;9.730;2023-09-19T09:51:50;6.60;;;1.85;;
48317;SDS011;34127;47.412;9.730;2023-09-19T09:54:25;3.15;;;1.77;;
48317;SDS011;34127;47.412;9.730;2023-09-19T09:57:10;3.28;;;1.65;;
48317;SDS011;34127;47.412;9.730;2023-09-19T10:02:46;4.10;;;2.20;;
48317;SDS011;34127;47.412;9.730;2023-09-19T10:05:17;4.53;;;1.83;;
48317;SDS011;34127;47.412;9.730;2023-09-19T10:07:51;5.30;;;2.05;;
48317;SDS011;34127;47.412;9.730;2023-09-19T10:10:37;5.85;;;1.70;;
48317;SDS011;34127;47.412;9.730;2023-09-19T10:13:29;4.05;;;1.92;;
48317;SDS011;34127;47.412;9.730;2023-09-19T10:16:05;6.25;;;1.80;;
48317;SDS011;34127;47.412;9.730;2023-09-19T10:18:40;4.55;;;1.70;;
48317;SDS011;34127;47.412;9.730;2023-09-19T10:21:18;5.13;;;1.83;;
48317;SDS011;34127;47.412;9.730;2023-09-19T10:24:01;2.55;;;1.50;;
48317;SDS011;34127;47.412;9.730;2023-09-19T10:26:39;3.03;;;1.48;;
48317;SDS011;34127;47.412;9.730;2023-09-19T10:29:16;3.30;;;1.50;;
48317;SDS011;34127;47.412;9.730;2023-09-19T10:31:51;4.32;;;1.58;;
48317;SDS011;34127;47.412;9.730;2023-09-19T10:34:28;4.05;;;1.92;;
48317;SDS011;34127;47.412;9.730;2023-09-19T10:37:02;8.10;;;2.28;;
48317;SDS011;34127;47.412;9.730;2023-09-19T10:39:46;4.90;;;1.55;;
48317;SDS011;34127;47.412;9.730;2023-09-19T10:42:19;2.22;;;1.30;;
48317;SDS011;34127;47.412;9.730;2023-09-19T10:44:49;3.22;;;1.50;;
48317;SDS011;34127;47.412;9.730;2023-09-19T10:47:27;3.47;;;1.65;;
48317;SDS011;34127;47.412;9.730;2023-09-19T10:50:01;2.63;;;1.33;;
48317;SDS011;34127;47.412;9.730;2023-09-19T10:52:40;3.25;;;1.48;;
48317;SDS011;34127;47.412;9.730;2023-09-19T10:55:19;3.20;;;1.50;;
48317;SDS011;34127;47.412;9.730;2023-09-19T10:57:59;4.15;;;1.40;;
48317;SDS011;34127;47.412;9.730;2023-09-19T11:00:53;5.32;;;1.50;;
48317;SDS011;34127;47.412;9.730;2023-09-19T11:03:47;2.30;;;1.40;;
48317;SDS011;34127;47.412;9.730;2023-09-19T11:06:20;2.85;;;1.38;;
48317;SDS011;34127;47.412;9.730;2023-09-19T11:09:02;2.67;;;1.25;;
48317;SDS011;34127;47.412;9.730;2023-09-19T11:11:45;3.83;;;1.27;;
48317;SDS011;34127;47.412;9.730;2023-09-19T11:22:23;3.33;;;1.50;;
48317;SDS011;34127;47.412;9.730;2023-09-19T11:25:19;2.40;;;1.40;;
48317;SDS011;34127;47.412;9.730;2023-09-19T11:31:00;3.55;;;1.30;;
48317;SDS011;34127;47.412;9.730;2023-09-19T11:34:15;4.93;;;1.48;;
48317;SDS011;34127;47.412;9.730;2023-09-19T11:36:49;3.75;;;1.60;;
48317;SDS011;34127;47.412;9.730;2023-09-19T11:39:32;3.47;;;1.60;;
48317;SDS011;34127;47.412;9.730;2023-09-19T11:48:04;1.88;;;1.10;;
48317;SDS011;34127;47.412;9.730;2023-09-19T11:50:43;2.80;;;1.48;;
48317;SDS011;34127;47.412;9.730;2023-09-19T11:53:21;2.13;;;1.20;;
48317;SDS011;34127;47.412;9.730;2023-09-19T11:55:56;4.15;;;1.40;;
48317;SDS011;34127;47.412;9.730;2023-09-19T11:58:36;2.55;;;1.30;;
48317;SDS011;34127;47.412;9.730;2023-09-19T12:01:14;2.33;;;1.30;;
48317;SDS011;34127;47.412;9.730;2023-09-19T12:03:50;2.55;;;1.40;;
48317;SDS011;34127;47.412;9.730;2023-09-19T12:06:23;3.22;;;1.23;;
48317;SDS011;34127;47.412;9.730;2023-09-19T12:08:55;3.20;;;1.40;;
48317;SDS011;34127;47.412;9.730;2023-09-19T12:11:30;2.00;;;1.17;;
48317;SDS011;34127;47.412;9.730;2023-09-19T12:16:34;2.58;;;1.20;;
48317;SDS011;34127;47.412;9.730;2023-09-19T12:19:18;2.47;;;1.30;;
48317;SDS011;34127;47.412;9.730;2023-09-19T12:21:55;2.35;;;1.30;;
48317;SDS011;34127;47.412;9.730;2023-09-19T12:24:31;4.50;;;1.50;;
48317;SDS011;34127;47.412;9.730;2023-09-19T12:27:05;2.80;;;1.42;;
48317;SDS011;34127;47.412;9.730;2023-09-19T12:29:42;2.83;;;1.38;;
48317;SDS011;34127;47.412;9.730;2023-09-19T12:32:12;3.35;;;1.33;;
48317;SDS011;34127;47.412;9.730;2023-09-19T12:34:55;2.58;;;1.30;;
48317;SDS011;34127;47.412;9.730;2023-09-19T12:37:27;2.53;;;1.40;;
48317;SDS011;34127;47.412;9.730;2023-09-19T12:40:05;2.20;;;1.40;;
48317;SDS011;34127;47.412;9.730;2023-09-19T12:42:49;2.80;;;1.40;;
48317;SDS011;34127;47.412;9.730;2023-09-19T12:45:25;4.47;;;1.60;;
48317;SDS011;34127;47.412;9.730;2023-09-19T12:54:15;2.22;;;1.30;;
48317;SDS011;34127;47.412;9.730;2023-09-19T12:56:47;2.67;;;1.30;;
48317;SDS011;34127;47.412;9.730;2023-09-19T12:59:29;2.83;;;1.58;;
48317;SDS011;34127;47.412;9.730;2023-09-19T13:02:06;2.95;;;1.50;;
48317;SDS011;34127;47.412;9.730;2023-09-19T13:04:56;2.83;;;1.30;;
48317;SDS011;34127;47.412;9.730;2023-09-19T13:07:44;2.65;;;1.40;;
48317;SDS011;34127;47.412;9.730;2023-09-19T13:10:20;3.70;;;1.70;;
48317;SDS011;34127;47.412;9.730;2023-09-19T13:12:55;4.22;;;1.40;;
48317;SDS011;34127;47.412;9.730;2023-09-19T13:15:52;2.08;;;1.30;;
48317;SDS011;34127;47.412;9.730;2023-09-19T13:21:10;2.80;;;1.50;;
48317;SDS011;34127;47.412;9.730;2023-09-19T13:26:19;2.45;;;1.30;;
48317;SDS011;34127;47.412;9.730;2023-09-19T13:28:48;5.03;;;1.70;;
48317;SDS011;34127;47.412;9.730;2023-09-19T13:31:17;3.25;;;1.20;;
48317;SDS011;34127;47.412;9.730;2023-09-19T13:33:45;2.30;;;1.40;;
48317;SDS011;34127;47.412;9.730;2023-09-19T13:36:15;4.25;;;1.40;;
48317;SDS011;34127;47.412;9.730;2023-09-19T13:38:47;4.40;;;1.45;;
48317;SDS011;34127;47.412;9.730;2023-09-19T13:41:19;2.47;;;1.30;;
48317;SDS011;34127;47.412;9.730;2023-09-19T13:43:53;2.83;;;1.45;;
48317;SDS011;34127;47.412;9.730;2023-09-19T13:46:23;2.38;;;1.40;;
48317;SDS011;34127;47.412;9.730;2023-09-19T13:49:03;1.88;;;1.20;;
48317;SDS011;34127;47.412;9.730;2023-09-19T13:51:32;3.35;;;1.50;;
48317;SDS011;34127;47.412;9.730;2023-09-19T13:54:09;4.15;;;1.40;;
48317;SDS011;34127;47.412;9.730;2023-09-19T13:56:45;3.75;;;1.60;;
48317;SDS011;34127;47.412;9.730;2023-09-19T13:59:16;4.20;;;1.30;;
48317;SDS011;34127;47.412;9.730;2023-09-19T14:01:52;4.35;;;1.60;;
48317;SDS011;34127;47.412;9.730;2023-09-19T14:04:27;4.18;;;1.60;;
48317;SDS011;34127;47.412;9.730;2023-09-19T14:06:57;2.58;;;1.40;;
48317;SDS011;34127;47.412;9.730;2023-09-19T14:09:43;4.90;;;2.25;;
48317;SDS011;34127;47.412;9.730;2023-09-19T14:12:18;4.10;;;1.38;;
48317;SDS011;34127;47.412;9.730;2023-09-19T14:14:49;2.75;;;1.20;;
48317;SDS011;34127;47.412;9.730;2023-09-19T14:17:16;2.80;;;1.20;;
48317;SDS011;34127;47.412;9.730;2023-09-19T14:19:43;3.55;;;1.55;;
48317;SDS011;34127;47.412;9.730;2023-09-19T14:22:09;2.47;;;1.27;;
48317;SDS011;34127;47.412;9.730;2023-09-19T14:24:36;2.13;;;1.30;;
48317;SDS011;34127;47.412;9.730;2023-09-19T14:27:02;3.13;;;1.35;;
48317;SDS011;34127;47.412;9.730;2023-09-19T14:29:29;2.72;;;1.38;;
48317;SDS011;34127;47.412;9.730;2023-09-19T14:31:58;2.78;;;1.38;;
48317;SDS011;34127;47.412;9.730;2023-09-19T14:37:10;2.78;;;1.30;;
48317;SDS011;34127;47.412;9.730;2023-09-19T14:39:37;2.53;;;1.40;;
48317;SDS011;34127;47.412;9.730;2023-09-19T14:42:06;2.90;;;1.45;;
48317;SDS011;34127;47.412;9.730;2023-09-19T14:44:34;4.32;;;1.45;;
48317;SDS011;34127;47.412;9.730;2023-09-19T14:47:01;3.15;;;1.50;;
48317;SDS011;34127;47.412;9.730;2023-09-19T14:49:29;3.00;;;1.20;;
48317;SDS011;34127;47.412;9.730;2023-09-19T14:51:56;2.28;;;1.33;;
48317;SDS011;34127;47.412;9.730;2023-09-19T14:54:22;2.70;;;1.50;;
48317;SDS011;34127;47.412;9.730;2023-09-19T14:56:49;2.88;;;1.60;;
48317;SDS011;34127;47.412;9.730;2023-09-19T14:59:19;3.25;;;1.42;;
48317;SDS011;34127;47.412;9.730;2023-09-19T15:01:45;3.70;;;1.40;;
48317;SDS011;34127;47.412;9.730;2023-09-19T15:04:12;3.22;;;1.40;;
48317;SDS011;34127;47.412;9.730;2023-09-19T15:06:38;2.60;;;1.30;;
48317;SDS011;34127;47.412;9.730;2023-09-19T15:09:05;2.50;;;1.30;;
48317;SDS011;34127;47.412;9.730;2023-09-19T15:11:37;2.88;;;1.40;;
48317;SDS011;34127;47.412;9.730;2023-09-19T15:14:03;2.20;;;1.30;;
48317;SDS011;34127;47.412;9.730;2023-09-19T15:16:30;3.38;;;1.38;;
48317;SDS011;34127;47.412;9.730;2023-09-19T15:18:57;3.33;;;1.40;;
48317;SDS011;34127;47.412;9.730;2023-09-19T15:21:24;3.10;;;1.42;;
48317;SDS011;34127;47.412;9.730;2023-09-19T15:23:51;3.15;;;1.38;;
48317;SDS011;34127;47.412;9.730;2023-09-19T15:26:17;2.65;;;1.33;;
48317;SDS011;34127;47.412;9.730;2023-09-19T15:28:47;2.78;;;1.40;;
48317;SDS011;34127;47.412;9.730;2023-09-19T15:31:14;3.92;;;1.35;;
48317;SDS011;34127;47.412;9.730;2023-09-19T15:33:41;2.22;;;1.38;;
48317;SDS011;34127;47.412;9.730;2023-09-19T15:36:14;2.83;;;1.40;;
48317;SDS011;34127;47.412;9.730;2023-09-19T15:38:54;2.78;;;1.45;;
48317;SDS011;34127;47.412;9.730;2023-09-19T15:41:29;3.00;;;1.33;;
48317;SDS011;34127;47.412;9.730;2023-09-19T15:43:56;2.65;;;1.45;;
48317;SDS011;34127;47.412;9.730;2023-09-19T15:46:24;2.58;;;1.33;;
48317;SDS011;34127;47.412;9.730;2023-09-19T15:48:55;5.38;;;1.50;;
48317;SDS011;34127;47.412;9.730;2023-09-19T15:51:22;3.88;;;1.33;;
48317;SDS011;34127;47.412;9.730;2023-09-19T15:53:49;1.95;;;1.20;;
48317;SDS011;34127;47.412;9.730;2023-09-19T15:56:16;2.30;;;1.40;;
48317;SDS011;34127;47.412;9.730;2023-09-19T15:58:46;2.67;;;1.50;;
48317;SDS011;34127;47.412;9.730;2023-09-19T16:01:13;3.30;;;1.60;;
48317;SDS011;34127;47.412;9.730;2023-09-19T16:03:45;3.33;;;1.52;;
48317;SDS011;34127;47.412;9.730;2023-09-19T16:06:19;1.90;;;1.20;;
48317;SDS011;34127;47.412;9.730;2023-09-19T16:08:52;3.58;;;1.52;;
48317;SDS011;34127;47.412;9.730;2023-09-19T16:11:22;2.58;;;1.60;;
48317;SDS011;34127;47.412;9.730;2023-09-19T16:13:49;4.28;;;1.60;;
48317;SDS011;34127;47.412;9.730;2023-09-19T16:16:17;3.70;;;1.75;;
48317;SDS011;34127;47.412;9.730;2023-09-19T16:18:50;2.85;;;1.52;;